createdAt,value
2018-06-10T00:01:20.275Z,3.90
2018-06-10T00:03:47.940Z,4.00
2018-06-10T00:06:15.862Z,4.27
2018-06-10T00:08:43.453Z,4.57
2018-06-10T00:11:10.991Z,4.40
2018-06-10T00:13:38.570Z,4.10
2018-06-10T00:16:06.122Z,4.23
2018-06-10T00:18:33.729Z,4.33
2018-06-10T00:21:01.257Z,4.03
2018-06-10T00:23:28.862Z,4.40
2018-06-10T00:25:56.415Z,4.40
2018-06-10T00:28:29.821Z,4.40
2018-06-10T00:30:57.373Z,4.70
2018-06-10T00:33:25.049Z,4.33
2018-06-10T00:35:52.598Z,4.57
2018-06-10T00:38:20.240Z,4.53
2018-06-10T00:40:47.788Z,4.43
2018-06-10T00:43:15.380Z,4.80
2018-06-10T00:45:42.990Z,4.43
2018-06-10T00:48:10.546Z,4.63
2018-06-10T00:50:38.120Z,4.70
2018-06-10T00:53:05.689Z,5.07
2018-06-10T00:55:33.306Z,5.00
2018-06-10T00:58:01.018Z,4.33
2018-06-10T01:00:35.353Z,4.20
2018-06-10T01:03:02.981Z,4.60
2018-06-10T01:05:30.559Z,4.70
2018-06-10T01:07:58.884Z,5.07
2018-06-10T01:10:26.499Z,3.90
2018-06-10T01:12:54.060Z,4.90
2018-06-10T01:15:21.677Z,4.50
2018-06-10T01:17:49.298Z,4.80
2018-06-10T01:20:16.834Z,4.60
2018-06-10T01:22:44.403Z,4.47
2018-06-10T01:25:11.975Z,5.10
2018-06-10T01:27:39.549Z,5.10
2018-06-10T01:30:07.163Z,4.73
2018-06-10T01:32:34.720Z,4.60
2018-06-10T01:35:02.329Z,5.40
2018-06-10T01:37:29.973Z,5.23
2018-06-10T01:39:57.525Z,4.50
2018-06-10T01:42:25.098Z,4.60
2018-06-10T01:44:52.673Z,4.27
2018-06-10T01:47:20.312Z,4.97
2018-06-10T01:49:47.885Z,4.80
2018-06-10T01:52:15.452Z,4.73
2018-06-10T01:54:43.005Z,4.63
2018-06-10T01:57:10.533Z,5.07
2018-06-10T01:59:38.106Z,4.83
2018-06-10T02:02:05.678Z,4.70
2018-06-10T02:04:33.247Z,4.70
2018-06-10T02:07:00.769Z,5.17
2018-06-10T02:09:28.321Z,4.67
2018-06-10T02:11:55.901Z,5.10
2018-06-10T02:14:23.513Z,4.30
2018-06-10T02:16:51.074Z,5.07
2018-06-10T02:19:18.651Z,5.10
2018-06-10T02:21:46.209Z,4.90
2018-06-10T02:24:13.778Z,5.13
2018-06-10T02:26:41.335Z,4.90
2018-06-10T02:29:08.877Z,4.10
2018-06-10T02:31:36.413Z,4.60
2018-06-10T02:34:04.058Z,4.73
2018-06-10T02:36:31.594Z,5.30
2018-06-10T02:38:59.198Z,5.23
2018-06-10T02:41:26.741Z,5.27
2018-06-10T02:43:54.294Z,5.67
2018-06-10T02:46:21.842Z,5.60
2018-06-10T02:48:49.405Z,5.50
2018-06-10T02:51:16.941Z,5.13
2018-06-10T02:53:44.516Z,5.50
2018-06-10T02:56:12.061Z,5.00
2018-06-10T02:58:39.724Z,5.60
2018-06-10T03:01:07.305Z,5.80
2018-06-10T03:03:34.942Z,5.10
2018-06-10T03:06:02.529Z,5.63
2018-06-10T03:08:30.057Z,5.30
2018-06-10T03:10:57.647Z,5.37
2018-06-10T03:13:25.198Z,5.10
2018-06-10T03:15:52.765Z,5.20
2018-06-10T03:18:20.315Z,5.70
2018-06-10T03:20:47.901Z,5.00
2018-06-10T03:23:15.515Z,5.37
2018-06-10T03:25:43.176Z,5.03
2018-06-10T03:28:10.876Z,5.03
2018-06-10T03:30:38.528Z,5.97
2018-06-10T03:33:06.036Z,5.57
2018-06-10T03:35:33.610Z,5.70
2018-06-10T03:38:01.153Z,5.20
2018-06-10T03:40:28.731Z,5.30
2018-06-10T03:42:56.280Z,5.50
2018-06-10T03:45:23.838Z,5.50
2018-06-10T03:47:51.562Z,5.77
2018-06-10T03:50:19.141Z,6.53
2018-06-10T03:52:46.700Z,5.97
2018-06-10T03:55:14.323Z,5.80
2018-06-10T03:57:41.856Z,5.90
2018-06-10T04:00:09.801Z,5.60
2018-06-10T04:02:37.369Z,5.93
2018-06-10T04:05:04.934Z,5.00
2018-06-10T04:07:32.479Z,5.60
2018-06-10T04:10:00.042Z,5.30
2018-06-10T04:12:27.581Z,5.83
2018-06-10T04:14:55.261Z,5.77
2018-06-10T04:17:22.961Z,5.70
2018-06-10T04:19:50.598Z,5.47
2018-06-10T04:22:18.191Z,5.30
2018-06-10T04:24:46.630Z,5.83
2018-06-10T04:27:14.297Z,5.80
2018-06-10T04:29:41.823Z,6.00
2018-06-10T04:32:09.373Z,5.57
2018-06-10T04:34:36.973Z,6.40
2018-06-10T04:37:04.635Z,6.10
2018-06-10T04:39:32.161Z,5.53
2018-06-10T04:41:59.731Z,6.07
2018-06-10T04:44:27.253Z,6.30
2018-06-10T04:46:54.846Z,5.40
2018-06-10T04:49:22.405Z,6.70
2018-06-10T04:51:49.952Z,5.83
2018-06-10T04:54:17.517Z,5.57
2018-06-10T04:56:45.084Z,5.83
2018-06-10T04:59:12.633Z,5.67
2018-06-10T05:01:40.204Z,5.80
2018-06-10T05:04:07.742Z,5.53
2018-06-10T05:06:35.316Z,5.87
2018-06-10T05:09:03.841Z,5.80
2018-06-10T05:11:31.404Z,6.30
2018-06-10T05:13:58.931Z,5.67
2018-06-10T05:16:26.481Z,6.20
2018-06-10T05:18:54.038Z,5.57
2018-06-10T05:21:21.598Z,5.50
2018-06-10T05:23:49.132Z,5.30
2018-06-10T05:26:16.989Z,5.23
2018-06-10T05:28:44.526Z,5.70
2018-06-10T05:31:12.068Z,6.50
2018-06-10T05:33:39.593Z,5.30
2018-06-10T05:36:07.138Z,5.70
2018-06-10T05:38:34.712Z,5.63
2018-06-10T05:41:02.290Z,6.00
2018-06-10T05:43:29.843Z,5.20
2018-06-10T05:45:57.390Z,6.20
2018-06-10T05:48:24.962Z,5.73
2018-06-10T05:50:52.506Z,4.90
2018-06-10T05:53:20.074Z,5.70
2018-06-10T05:55:47.675Z,5.97
2018-06-10T05:58:15.249Z,6.00
2018-06-10T06:00:42.797Z,5.30
2018-06-10T06:03:10.396Z,5.83
2018-06-10T06:05:37.946Z,5.97
2018-06-10T06:08:05.501Z,6.80
2018-06-10T06:10:33.055Z,5.97
2018-06-10T06:13:00.755Z,6.67
2018-06-10T06:15:28.417Z,5.43
2018-06-10T06:17:55.970Z,6.50
2018-06-10T06:20:23.521Z,6.50
2018-06-10T06:22:51.350Z,6.40
2018-06-10T06:25:21.543Z,6.67
2018-06-10T06:27:49.145Z,6.70
2018-06-10T06:30:16.803Z,5.80
2018-06-10T06:32:44.361Z,6.20
2018-06-10T06:35:11.901Z,6.20
2018-06-10T06:37:39.497Z,5.87
2018-06-10T06:40:07.121Z,6.97
2018-06-10T06:42:34.739Z,7.00
2018-06-10T06:45:02.875Z,6.03
2018-06-10T06:47:30.445Z,6.47
2018-06-10T06:49:58.029Z,6.43
2018-06-10T06:52:25.755Z,5.93
2018-06-10T06:54:53.293Z,5.67
2018-06-10T06:57:20.911Z,6.40
2018-06-10T06:59:48.470Z,6.03
2018-06-10T07:02:16.026Z,6.13
2018-06-10T07:04:43.589Z,6.00
2018-06-10T07:07:11.169Z,5.90
2018-06-10T07:09:38.721Z,6.30
2018-06-10T07:12:06.250Z,7.80
2018-06-10T07:14:33.823Z,7.97
2018-06-10T07:17:02.042Z,6.97
2018-06-10T07:19:29.725Z,6.73
2018-06-10T07:21:57.272Z,6.93
2018-06-10T07:24:24.828Z,6.70
2018-06-10T07:26:52.435Z,6.30
2018-06-10T07:29:19.984Z,6.50
2018-06-10T07:31:47.534Z,6.50
2018-06-10T07:34:15.113Z,6.77
2018-06-10T07:36:42.774Z,5.90
2018-06-10T07:39:10.327Z,7.07
2018-06-10T07:41:37.890Z,7.43
2018-06-10T07:44:05.478Z,7.07
2018-06-10T07:46:33.013Z,7.13
2018-06-10T07:49:00.776Z,6.40
2018-06-10T07:51:28.433Z,6.17
2018-06-10T07:53:55.993Z,6.20
2018-06-10T07:56:23.526Z,7.17
2018-06-10T07:58:51.211Z,6.33
2018-06-10T08:01:18.770Z,6.83
2018-06-10T08:03:46.346Z,6.57
2018-06-10T08:06:13.897Z,6.30
2018-06-10T08:08:41.491Z,6.47
2018-06-10T08:11:09.048Z,6.60
2018-06-10T08:13:36.622Z,6.10
2018-06-10T08:16:04.194Z,8.30
2018-06-10T08:18:31.729Z,6.53
2018-06-10T08:20:59.302Z,7.20
2018-06-10T08:23:26.876Z,6.60
2018-06-10T08:25:54.561Z,6.30
2018-06-10T08:28:22.098Z,6.73
2018-06-10T08:30:49.673Z,7.37
2018-06-10T08:33:17.200Z,8.90
2018-06-10T08:35:44.766Z,8.03
2018-06-10T08:38:12.319Z,38.17
2018-06-10T08:40:39.919Z,9.23
2018-06-10T08:43:07.465Z,8.77
2018-06-10T08:45:35.086Z,8.03
2018-06-10T08:48:02.654Z,7.80
2018-06-10T08:50:30.335Z,8.20
2018-06-10T08:52:57.811Z,8.33
2018-06-10T08:55:25.471Z,9.27
2018-06-10T08:57:53.029Z,7.97
2018-06-10T09:00:20.597Z,8.60
2018-06-10T09:02:48.158Z,7.80
2018-06-10T09:05:15.742Z,8.80
2018-06-10T09:07:43.269Z,9.00
2018-06-10T09:10:10.826Z,7.83
2018-06-10T09:12:38.484Z,8.93
2018-06-10T09:15:06.062Z,8.60
2018-06-10T09:17:33.653Z,8.60
2018-06-10T09:20:01.189Z,8.23
2018-06-10T09:22:28.734Z,8.43
2018-06-10T09:24:56.321Z,9.00
2018-06-10T09:27:23.900Z,9.27
2018-06-10T09:29:51.470Z,8.47
2018-06-10T09:32:19.283Z,8.30
2018-06-10T09:34:46.866Z,9.13
2018-06-10T09:37:14.373Z,8.60
2018-06-10T09:39:41.945Z,9.10
2018-06-10T09:42:09.552Z,9.73
2018-06-10T09:44:37.398Z,9.50
2018-06-10T09:47:04.948Z,9.80
2018-06-10T09:49:32.524Z,9.63
2018-06-10T09:52:00.047Z,10.10
2018-06-10T09:54:27.593Z,9.00
2018-06-10T09:56:55.193Z,9.20
2018-06-10T09:59:22.728Z,9.07
2018-06-10T10:01:50.374Z,8.67
2018-06-10T10:04:17.932Z,9.40
2018-06-10T10:06:45.528Z,9.50
2018-06-10T10:09:13.071Z,8.80
2018-06-10T10:11:40.710Z,9.10
2018-06-10T10:14:08.226Z,9.80
2018-06-10T10:16:35.910Z,9.50
2018-06-10T10:19:03.476Z,10.10
2018-06-10T10:21:31.066Z,9.80
2018-06-10T10:23:58.692Z,10.00
2018-06-10T10:26:26.264Z,9.97
2018-06-10T10:28:53.819Z,10.10
2018-06-10T10:31:21.377Z,9.77
2018-06-10T10:33:48.925Z,10.20
2018-06-10T10:36:16.915Z,10.30
2018-06-10T10:38:44.759Z,9.97
2018-06-10T10:41:12.328Z,9.80
2018-06-10T10:43:39.913Z,9.93
2018-06-10T10:46:07.618Z,10.00
2018-06-10T10:48:35.319Z,9.83
2018-06-10T10:51:03.185Z,10.10
2018-06-10T10:53:30.705Z,9.30
2018-06-10T10:55:58.385Z,9.20
2018-06-10T10:58:25.954Z,10.43
2018-06-10T11:00:53.553Z,10.60
2018-06-10T11:03:21.095Z,10.90
2018-06-10T11:05:48.949Z,9.73
2018-06-10T11:08:17.052Z,10.03
2018-06-10T11:10:44.582Z,10.30
2018-06-10T11:13:12.109Z,10.30
2018-06-10T11:15:39.688Z,10.60
2018-06-10T11:18:07.234Z,11.03
2018-06-10T11:20:34.764Z,10.50
2018-06-10T11:23:02.338Z,10.60
2018-06-10T11:25:29.879Z,10.70
2018-06-10T11:27:57.529Z,10.30
2018-06-10T11:30:25.053Z,9.43
2018-06-10T11:32:52.705Z,9.73
2018-06-10T11:35:20.246Z,8.73
2018-06-10T11:37:47.826Z,9.10
2018-06-10T11:40:15.478Z,9.00
2018-06-10T11:42:43.037Z,9.30
2018-06-10T11:45:11.525Z,9.40
2018-06-10T11:47:39.141Z,9.00
2018-06-10T11:50:08.172Z,8.20
2018-06-10T11:52:35.839Z,9.37
2018-06-10T11:55:03.406Z,8.80
2018-06-10T11:57:30.957Z,9.47
2018-06-10T11:59:58.487Z,9.37
2018-06-10T12:02:26.045Z,10.20
2018-06-10T12:04:53.578Z,9.70
2018-06-10T12:07:21.149Z,10.07
2018-06-10T12:09:48.695Z,10.23
2018-06-10T12:12:16.317Z,9.20
2018-06-10T12:14:43.853Z,10.20
2018-06-10T12:17:11.474Z,9.37
2018-06-10T12:19:39.053Z,9.70
2018-06-10T12:22:06.653Z,9.67
2018-06-10T12:24:34.180Z,9.23
2018-06-10T12:27:01.742Z,8.70
2018-06-10T12:29:29.421Z,9.10
2018-06-10T12:31:56.983Z,8.33
2018-06-10T12:34:24.510Z,8.10
2018-06-10T12:36:52.137Z,9.87
2018-06-10T12:39:19.707Z,12.50
2018-06-10T12:41:47.320Z,13.67
2018-06-10T12:44:14.978Z,15.67
2018-06-10T12:46:42.557Z,15.20
2018-06-10T12:49:10.160Z,15.73
2018-06-10T12:51:37.723Z,17.43
2018-06-10T12:54:05.344Z,16.27
2018-06-10T12:56:32.927Z,18.27
2018-06-10T12:59:00.506Z,17.03
2018-06-10T13:01:28.098Z,16.90
2018-06-10T13:03:55.665Z,17.83
2018-06-10T13:06:23.201Z,15.40
2018-06-10T13:08:50.749Z,17.70
2018-06-10T13:11:18.359Z,16.67
2018-06-10T13:13:45.929Z,16.90
2018-06-10T13:16:13.642Z,17.50
2018-06-10T13:18:41.317Z,17.30
2018-06-10T13:21:08.860Z,16.30
2018-06-10T13:23:36.709Z,17.03
2018-06-10T13:26:04.426Z,16.13
2018-06-10T13:28:31.966Z,15.27
2018-06-10T13:30:59.563Z,14.00
2018-06-10T13:33:27.081Z,12.53
2018-06-10T13:35:54.682Z,12.50
2018-06-10T13:38:22.265Z,11.60
2018-06-10T13:40:49.875Z,10.67
2018-06-10T13:43:17.407Z,11.47
2018-06-10T13:45:44.939Z,10.07
2018-06-10T13:48:12.530Z,9.90
2018-06-10T13:50:40.105Z,10.53
2018-06-10T13:53:07.689Z,10.23
2018-06-10T13:55:35.193Z,9.07
2018-06-10T13:58:02.870Z,10.13
2018-06-10T14:00:30.400Z,10.63
2018-06-10T14:02:57.934Z,9.70
2018-06-10T14:05:25.464Z,11.40
2018-06-10T14:07:53.053Z,9.93
2018-06-10T14:10:20.601Z,11.33
2018-06-10T14:12:48.160Z,11.60
2018-06-10T14:15:15.760Z,11.77
2018-06-10T14:17:43.319Z,11.60
2018-06-10T14:20:10.935Z,10.47
2018-06-10T14:22:38.483Z,10.30
2018-06-10T14:25:06.115Z,9.90
2018-06-10T14:27:33.686Z,9.27
2018-06-10T14:30:01.284Z,9.13
2018-06-10T14:32:28.853Z,8.30
2018-06-10T14:34:56.433Z,8.67
2018-06-10T14:37:24.033Z,9.00
2018-06-10T14:39:51.678Z,7.50
2018-06-10T14:42:19.315Z,7.63
2018-06-10T14:44:46.892Z,7.33
2018-06-10T14:47:14.510Z,6.47
2018-06-10T14:49:42.085Z,6.50
2018-06-10T14:52:09.632Z,6.77
2018-06-10T14:54:37.207Z,6.87
2018-06-10T14:57:04.737Z,7.23
2018-06-10T14:59:32.340Z,7.80
2018-06-10T15:01:59.894Z,6.57
2018-06-10T15:04:27.470Z,6.77
2018-06-10T15:06:55.015Z,6.30
2018-06-10T15:09:22.609Z,7.20
2018-06-10T15:11:50.126Z,6.40
2018-06-10T15:14:17.701Z,7.17
2018-06-10T15:16:45.269Z,6.40
2018-06-10T15:19:12.919Z,7.00
2018-06-10T15:21:40.463Z,6.77
2018-06-10T15:24:08.072Z,6.97
2018-06-10T15:26:35.576Z,7.23
2018-06-10T15:29:03.176Z,7.23
2018-06-10T15:31:30.726Z,7.30
2018-06-10T15:33:58.246Z,7.37
2018-06-10T15:36:25.858Z,7.77
2018-06-10T15:38:53.394Z,8.43
2018-06-10T15:41:20.976Z,9.03
2018-06-10T15:43:48.611Z,8.97
2018-06-10T15:46:16.442Z,8.13
2018-06-10T15:48:44.137Z,7.40
2018-06-10T15:51:11.668Z,8.03
2018-06-10T15:53:39.498Z,8.80
2018-06-10T15:56:07.096Z,7.63
2018-06-10T15:58:34.663Z,8.20
2018-06-10T16:01:02.207Z,8.13
2018-06-10T16:03:29.791Z,7.67
2018-06-10T16:05:57.335Z,7.60
2018-06-10T16:08:24.931Z,7.37
2018-06-10T16:10:52.474Z,7.50
2018-06-10T16:13:20.061Z,6.80
2018-06-10T16:15:47.609Z,6.63
2018-06-10T16:18:15.196Z,6.10
2018-06-10T16:20:42.732Z,6.17
2018-06-10T16:23:10.302Z,5.53
2018-06-10T16:25:38.028Z,6.37
2018-06-10T16:28:05.616Z,6.00
2018-06-10T16:30:33.195Z,6.37
2018-06-10T16:33:00.801Z,6.13
2018-06-10T16:35:28.385Z,6.17
2018-06-10T16:37:55.939Z,6.10
2018-06-10T16:40:23.469Z,5.50
2018-06-10T16:42:51.046Z,5.80
2018-06-10T16:45:18.660Z,6.40
2018-06-10T16:47:46.264Z,5.73
2018-06-10T16:50:13.795Z,5.73
2018-06-10T16:52:41.382Z,6.20
2018-06-10T16:55:08.982Z,6.10
2018-06-10T16:57:36.508Z,6.07
2018-06-10T17:00:04.678Z,6.57
2018-06-10T17:02:32.216Z,6.57
2018-06-10T17:04:59.826Z,6.27
2018-06-10T17:07:27.339Z,6.17
2018-06-10T17:09:54.889Z,6.17
2018-06-10T17:12:22.422Z,5.10
2018-06-10T17:14:50.021Z,5.30
2018-06-10T17:17:17.557Z,6.60
2018-06-10T17:19:45.189Z,4.97
2018-06-10T17:22:12.737Z,4.70
2018-06-10T17:24:40.314Z,4.70
2018-06-10T17:27:07.915Z,4.20
2018-06-10T17:29:35.434Z,4.70
2018-06-10T17:32:03.153Z,4.30
2018-06-10T17:34:30.742Z,5.13
2018-06-10T17:36:58.255Z,6.27
2018-06-10T17:39:25.894Z,5.83
2018-06-10T17:41:53.433Z,6.77
2018-06-10T17:44:21.026Z,5.70
2018-06-10T17:46:48.563Z,6.53
2018-06-10T17:49:16.253Z,6.67
2018-06-10T17:51:43.821Z,6.40
2018-06-10T17:54:11.356Z,7.00
2018-06-10T17:56:38.944Z,7.10
2018-06-10T17:59:06.607Z,6.80
2018-06-10T18:01:34.229Z,6.77
2018-06-10T18:04:01.793Z,6.80
2018-06-10T18:06:29.398Z,7.40
2018-06-10T18:08:56.905Z,7.30
2018-06-10T18:11:24.493Z,7.00
2018-06-10T18:13:52.041Z,7.40
2018-06-10T18:16:19.681Z,7.60
2018-06-10T18:18:47.196Z,7.30
2018-06-10T18:21:14.774Z,7.87
2018-06-10T18:23:42.347Z,8.00
2018-06-10T18:26:09.877Z,7.80
2018-06-10T18:28:37.461Z,7.70
2018-06-10T18:31:05.004Z,7.70
2018-06-10T18:33:32.610Z,8.00
2018-06-10T18:36:00.167Z,7.23
2018-06-10T18:38:27.749Z,7.20
2018-06-10T18:40:55.336Z,7.00
2018-06-10T18:43:22.941Z,8.03
2018-06-10T18:45:50.513Z,7.40
2018-06-10T18:48:18.120Z,6.60
2018-06-10T18:50:45.689Z,7.60
2018-06-10T18:53:13.398Z,8.10
2018-06-10T18:55:40.973Z,8.20
2018-06-10T18:58:08.542Z,8.30
2018-06-10T19:00:36.132Z,8.47
2018-06-10T19:03:03.830Z,9.33
2018-06-10T19:05:31.292Z,8.90
2018-06-10T19:07:58.873Z,9.80
2018-06-10T19:10:26.465Z,10.20
2018-06-10T19:12:54.017Z,10.40
2018-06-10T19:15:21.569Z,9.90
2018-06-10T19:17:49.166Z,9.90
2018-06-10T19:20:17.021Z,10.10
2018-06-10T19:22:44.550Z,9.90
2018-06-10T19:25:12.130Z,9.17
2018-06-10T19:27:39.674Z,10.00
2018-06-10T19:30:07.285Z,14.53
2018-06-10T19:32:34.885Z,11.97
2018-06-10T19:35:02.563Z,11.40
2018-06-10T19:37:30.281Z,9.27
2018-06-10T19:39:57.833Z,10.00
2018-06-10T19:42:25.589Z,9.50
2018-06-10T19:44:53.120Z,9.63
2018-06-10T19:47:20.842Z,10.10
2018-06-10T19:49:48.474Z,9.70
2018-06-10T19:52:16.070Z,9.77
2018-06-10T19:54:44.002Z,9.67
2018-06-10T19:57:11.601Z,9.40
2018-06-10T19:59:39.108Z,9.17
2018-06-10T20:02:06.730Z,9.20
2018-06-10T20:04:34.548Z,10.50
2018-06-10T20:07:02.225Z,11.27
2018-06-10T20:09:30.058Z,11.67
2018-06-10T20:11:58.094Z,11.13
2018-06-10T20:14:25.938Z,10.37
2018-06-10T20:16:53.899Z,10.60
2018-06-10T20:19:21.555Z,10.20
2018-06-10T20:21:49.152Z,15.70
2018-06-10T20:24:16.700Z,11.03
2018-06-10T20:26:44.334Z,10.63
2018-06-10T20:29:11.876Z,10.50
2018-06-10T20:31:39.401Z,10.10
2018-06-10T20:34:07.093Z,10.67
2018-06-10T20:36:34.670Z,11.50
2018-06-10T20:39:02.365Z,12.00
2018-06-10T20:41:29.975Z,11.50
2018-06-10T20:43:57.598Z,12.00
2018-06-10T20:46:25.256Z,11.70
2018-06-10T20:48:52.958Z,12.27
2018-06-10T20:51:20.551Z,12.97
2018-06-10T20:53:48.068Z,12.60
2018-06-10T20:56:15.956Z,11.27
2018-06-10T20:58:43.494Z,10.87
2018-06-10T21:01:11.105Z,11.00
2018-06-10T21:03:38.657Z,11.33
2018-06-10T21:06:06.297Z,11.20
2018-06-10T21:08:33.835Z,12.20
2018-06-10T21:11:01.621Z,11.40
2018-06-10T21:13:29.173Z,13.20
2018-06-10T21:15:56.725Z,13.93
2018-06-10T21:18:24.311Z,13.90
2018-06-10T21:20:51.885Z,14.20
2018-06-10T21:23:19.451Z,16.00
2018-06-10T21:25:47.466Z,16.27
2018-06-10T21:28:15.037Z,16.47
2018-06-10T21:30:42.630Z,15.40
2018-06-10T21:33:10.253Z,16.07
2018-06-10T21:35:37.813Z,16.67
2018-06-10T21:38:05.368Z,15.50
2018-06-10T21:40:33.013Z,16.27
2018-06-10T21:43:00.637Z,15.80
2018-06-10T21:45:28.245Z,16.50
2018-06-10T21:47:55.844Z,16.20
2018-06-10T21:50:23.374Z,15.33
2018-06-10T21:52:51.019Z,16.10
2018-06-10T21:55:18.737Z,16.60
2018-06-10T21:57:46.287Z,15.80
2018-06-10T22:00:19.142Z,16.70
2018-06-10T22:02:46.683Z,17.20
2018-06-10T22:05:14.333Z,17.13
2018-06-10T22:07:42.152Z,19.00
2018-06-10T22:10:09.821Z,17.13
2018-06-10T22:12:37.545Z,19.70
2018-06-10T22:15:05.474Z,20.17
2018-06-10T22:17:33.148Z,20.00
2018-06-10T22:20:00.832Z,20.70
2018-06-10T22:22:28.478Z,21.93
2018-06-10T22:24:56.238Z,22.43
2018-06-10T22:27:23.861Z,23.27
2018-06-10T22:29:51.648Z,23.10
2018-06-10T22:32:19.558Z,22.90
2018-06-10T22:34:47.303Z,24.20
2018-06-10T22:37:15.082Z,23.13
2018-06-10T22:39:42.664Z,24.30
2018-06-10T22:42:10.349Z,23.27
2018-06-10T22:44:38.050Z,23.93
2018-06-10T22:47:05.773Z,23.63
2018-06-10T22:49:33.404Z,23.60
2018-06-10T22:52:01.139Z,24.43
2018-06-10T22:54:45.038Z,24.50
2018-06-10T22:57:12.750Z,25.97
2018-06-10T22:59:40.724Z,25.00
2018-06-10T23:02:09.153Z,26.57
2018-06-10T23:04:36.838Z,27.00
2018-06-10T23:07:04.607Z,27.33
2018-06-10T23:09:32.302Z,26.17
2018-06-10T23:12:00.046Z,26.30
2018-06-10T23:14:27.710Z,27.37
2018-06-10T23:16:55.408Z,25.27
2018-06-10T23:19:23.202Z,27.80
2018-06-10T23:21:50.866Z,27.40
2018-06-10T23:24:18.840Z,27.73
2018-06-10T23:26:46.490Z,26.50
2018-06-10T23:29:14.230Z,27.30
2018-06-10T23:31:41.971Z,26.63
2018-06-10T23:34:09.681Z,26.60
2018-06-10T23:36:37.321Z,26.60
2018-06-10T23:39:06.685Z,26.40
2018-06-10T23:41:34.475Z,26.37
2018-06-10T23:44:02.262Z,25.60
2018-06-10T23:46:30.111Z,26.23
2018-06-10T23:48:57.750Z,25.73
2018-06-10T23:51:25.557Z,24.10
2018-06-10T23:53:53.208Z,25.10
2018-06-10T23:56:20.837Z,23.97
2018-06-10T23:58:48.513Z,23.37
